Flight Track Log - Related Links

Times and Time Zones

All times are in EDT time to prevent confusion due to time zone crossing. See the ASQ4233 flight status page for this flight to view local times or setup timezone preferences in your user account.

Time Position Orientation Groundspeed Altitude Reporting Facility
EDT Latitude Longitude Course Direction KTS MPH feet Rate Location/Type
Sun 02:34:52 PM 31.8675 -101.9753 109° East 291 335 10,500  Level Fort Worth Center
Sun 02:35:00 PM 31.8205 -101.8281 111° Southeast  Level FlightAware Approximate
Sun 02:35:52 PM 31.8356 -101.8708 110° East 316 364 11,200  Level Fort Worth Center
Sun 02:36:00 PM 31.7877 -101.7370 113° Southeast  Level FlightAware Approximate
Sun 02:36:52 PM 31.7981 -101.7494 110° East 358 412 13,400  Level Fort Worth Center
Sun 02:37:00 PM 31.7546 -101.6460 113° Southeast  Level FlightAware Approximate
Sun 02:37:52 PM 31.7622 -101.6403 111° Southeast 365 420 15,800  Level Fort Worth Center
Sun 02:38:00 PM 31.7341 -101.5696 106° East  Level FlightAware Approximate
Sun 02:38:52 PM 31.7225 -101.5186 111° Southeast 379 436 16,900  Level Fort Worth Center
Sun 02:39:00 PM 31.7145 -101.4929 109° East  Level FlightAware Approximate
Sun 02:39:52 PM 31.6847 -101.3950 110° East 391 450 17,800  Level Fort Worth Center
Sun 02:40:00 PM 31.6919 -101.4173 109° East  Level FlightAware Approximate
Sun 02:40:52 PM 31.6408 -101.2614 111° Southeast 413 475 18,900  Level Fort Worth Center
Sun 02:41:52 PM 31.5969 -101.1278 111° Southeast 427 491 20,500 1,550 Climbing Fort Worth Center
Sun 02:42:52 PM 31.5525 -100.9969 112° Southeast 432 497 22,000 1,400 Climbing Fort Worth Center
Sun 02:43:52 PM 31.5106 -100.8611 110° East 438 504 23,300 1,300 Climbing Fort Worth Center
Sun 02:44:52 PM 31.4639 -100.7256 112° Southeast 438 504 24,600 1,300 Climbing Fort Worth Center
Sun 02:45:52 PM 31.4214 -100.5925 110° East 438 504 25,900 1,259 Climbing Fort Worth Center
Sun 02:48:17 PM 31.3094 -100.2608 111° Southeast 451 519 28,900 1,188 Climbing Houston Center
Sun 02:49:19 PM 31.2628 -100.1247 112° Southeast 451 519 30,000 968 Climbing Houston Center
Sun 02:50:21 PM 31.2150 -99.9842 112° Southeast 460 529 30,900 484 Climbing Houston Center
Sun 02:51:23 PM 31.1653 -99.8386 112° Southeast 475 547 31,000 48 Climbing Houston Center
Sun 02:52:25 PM 31.1353 -99.6747 102° East 509 586 31,000  Level Houston Center
Sun 02:53:27 PM 31.1222 -99.5089 95° East 513 590 31,000  Level Houston Center
Sun 02:54:29 PM 31.1072 -99.3117 95° East 510 587 31,000  Level Houston Center
Sun 02:55:31 PM 31.0947 -99.1467 95° East 508 585 31,000  Level Houston Center
Sun 02:57:00 PM 31.0785 -98.9602 96° East  Level FlightAware Approximate
Sun 02:57:35 PM 31.0678 -98.8181 96° East 505 581 31,000  Level Houston Center
Sun 02:58:38 PM 31.0528 -98.6539 96° East 505 581 31,000  Level Houston Center
Sun 02:59:40 PM 31.0383 -98.4894 96° East 505 581 31,000  Level Houston Center
Sun 03:00:42 PM 31.0247 -98.3256 95° East 504 580 31,000  Level Houston Center
Sun 03:01:44 PM 31.0078 -98.1347 96° East 503 579 31,000  Level Houston Center
Sun 03:02:46 PM 30.9928 -97.9708 96° East 505 581 31,000  Level Houston Center
Sun 03:03:48 PM 30.9775 -97.8072 96° East 504 580 31,000  Level Houston Center
Sun 03:04:50 PM 30.9628 -97.6450 96° East 502 578 31,000  Level Houston Center
Sun 03:05:52 PM 30.9481 -97.4831 96° East 499 574 31,000  Level Houston Center
Sun 03:06:54 PM 30.9186 -97.3272 102° East 496 571 31,000  Level Houston Center
Sun 03:07:56 PM 30.8664 -97.1503 109° East 509 586 31,000  Level Houston Center
Sun 03:08:59 PM 30.8175 -96.9956 110° East 509 586 31,000 -144 Level Houston Center
Sun 03:10:01 PM 30.7672 -96.8431 111° Southeast 499 574 30,700 -629 Descending Houston Center
Sun 03:11:03 PM 30.7175 -96.6872 110° East 509 586 29,700 -1,548 Descending Houston Center
Sun 03:12:05 PM 30.6683 -96.5317 110° East 510 587 27,500 -2,692 Descending Houston Center
Sun 03:12:50 PM 30.6247 -96.3986 111° Southeast 509 586 24,900 -3,387 Descending Houston Center
Sun 03:13:07 PM 30.6111 -96.3500 108° East 509 586 24,000 -3,038 Descending Houston Center
Sun 03:14:09 PM 30.5628 -96.2017 111° Southeast 493 567 20,900 -3,300 Descending Houston Center
Sun 03:14:47 PM 30.5333 -96.1106 111° Southeast 452 520 18,500 -3,581 Descending Houston Center
Sun 03:15:11 PM 30.5186 -96.0631 110° East 458 527 17,200 -3,558 Descending Houston Center
Sun 03:16:13 PM 30.4767 -95.9378 111° Southeast 430 495 13,400 -3,290 Descending Houston Center
Sun 03:16:44 PM 30.4494 -95.8683 114° Southeast 403 464 12,100 -1,355 Descending Houston Center
Sun 03:17:15 PM 30.4208 -95.8283 130° Southeast 403 464 12,000 -358 Descending Houston Center
Sun 03:17:51 PM 30.3586 -95.7650 139° Southeast 402 463 11,700 -581 Descending Houston Center
Sun 03:18:17 PM 30.3381 -95.7419 136° Southeast 400 460 11,400 -964 Descending Houston Center
Sun 03:18:47 PM 30.2867 -95.6889 138° Southeast 370 426 10,800 -968 Descending Houston Center
Sun 03:19:19 PM 30.2608 -95.6625 139° Southeast 377 434 10,400 -1,309 Descending Houston Center
Sun 03:19:42 PM 30.2222 -95.6239 139° Southeast 322 371 9,600 -2,095 Descending Houston Center
Sun 03:20:22 PM 30.1825 -95.5797 136° Southeast 321 369 8,200 -2,294 Descending Houston Center
Sun 03:20:50 PM 30.1503 -95.5478 139° Southeast 323 372 7,000 -1,935 Descending Houston Center
Sun 03:21:24 PM 30.1183 -95.5097 134° Southeast 318 366 6,200 -896 Descending Houston Center
Sun 03:21:57 PM 30.1061 -95.4542 104° East 288 331 6,000 -194 Descending Houston Center
Sun 03:22:26 PM 30.1067 -95.4206 89° East 287 330 6,000  Level Houston Center
Sun 03:22:52 PM 30.1047 -95.3697 93° East 285 328 6,000  Level Houston Center
Sun 03:23:28 PM 30.1064 -95.3275 87° East 287 330 6,000 -677 Level Houston Center
Sun 03:23:54 PM 30.1044 -95.2756 92° East 291 335 5,300 -1,258 Descending Houston Center
Sun 03:24:30 PM 30.1056 -95.2353 88° East 287 330 4,700 -1,475 Descending Houston Center
Sun 03:24:55 PM 30.1050 -95.1886 91° East 236 272 3,800 -1,258 Descending Houston Center
Sun 03:25:32 PM 30.1047 -95.1561 91° East 261 300 3,400 -1,071 Descending Houston Center
Sun 03:25:51 PM 30.0847 -95.1283 130° Southeast 239 275 2,800 -1,452 Descending Houston Center
Sun 03:26:34 PM 30.0458 -95.1244 175° South 239 275 1,900 -716 Descending Houston Center
Sun 03:26:58 PM 30.0317 -95.1444 231° Southwest 190 219 2,000 97 Climbing Houston Center
Sun 03:27:36 PM 30.0125 -95.1706 230° Southwest 206 237 2,000  Level Houston Center
Sun 03:27:59 PM 30.0069 -95.1958 256° West 162 186 2,000 194 Level Houston Center
Sun 03:28:38 PM 30.0033 -95.2294 263° West 195 224 2,200 -484 Climbing Houston Center
Sun 03:29:01 PM 30.0078 -95.2511 283° West 163 188 1,500 -1,048 Descending Houston Center
Sun 03:29:41 PM 30.0072 -95.2744 268° West 173 199 1,100 -787 Descending Houston Center
Sun 03:30:02 PM 30.0075 -95.2944 271° West 143 165 700 -677 Descending Houston Center
Sun 03:30:43 PM 30.0078 -95.3178 271° West 152 175 400 -439 Descending Houston Center

Login

Don't have an account? Register now (free) for customized features, flight alerts, and more!